createdAt,value
2023-04-23T00:01:28.977Z,2.00
2023-04-23T00:03:33.454Z,2.23
2023-04-23T00:05:37.852Z,2.23
2023-04-23T00:07:41.675Z,2.10
2023-04-23T00:09:45.453Z,1.80
2023-04-23T00:11:49.251Z,1.90
2023-04-23T00:13:52.809Z,2.37
2023-04-23T00:15:57.686Z,2.10
2023-04-23T00:18:00.783Z,2.20
2023-04-23T00:20:03.629Z,1.90
2023-04-23T00:22:06.608Z,2.07
2023-04-23T00:24:09.411Z,2.00
2023-04-23T00:26:12.405Z,2.10
2023-04-23T00:28:15.303Z,2.20
2023-04-23T00:30:18.968Z,2.10
2023-04-23T00:32:23.824Z,2.00
2023-04-23T00:34:27.562Z,2.10
2023-04-23T00:36:30.465Z,2.30
2023-04-23T00:38:33.368Z,2.10
2023-04-23T00:40:36.474Z,2.17
2023-04-23T00:42:40.541Z,2.50
2023-04-23T00:44:43.983Z,1.93
2023-04-23T00:46:48.262Z,2.10
2023-04-23T00:48:53.377Z,2.27
2023-04-23T00:51:00.485Z,2.60
2023-04-23T00:53:04.901Z,2.10
2023-04-23T00:55:09.153Z,1.83
2023-04-23T00:57:13.479Z,2.20
2023-04-23T00:59:16.716Z,2.17
2023-04-23T01:01:20.938Z,2.30
2023-04-23T01:03:25.591Z,2.30
2023-04-23T01:05:30.912Z,2.43
2023-04-23T01:07:36.036Z,2.20
2023-04-23T01:09:39.119Z,2.30
2023-04-23T01:11:44.716Z,2.10
2023-04-23T01:13:47.510Z,2.20
2023-04-23T01:15:50.568Z,2.50
2023-04-23T01:17:53.776Z,2.50
2023-04-23T01:19:57.606Z,2.40
2023-04-23T01:22:03.478Z,2.50
2023-04-23T01:24:09.361Z,2.50
2023-04-23T01:26:12.226Z,2.80
2023-04-23T01:28:16.305Z,2.30
2023-04-23T01:30:19.240Z,2.63
2023-04-23T01:32:22.945Z,2.40
2023-04-23T01:34:25.833Z,2.90
2023-04-23T01:36:29.035Z,2.40
2023-04-23T01:38:36.389Z,2.40
2023-04-23T01:40:40.554Z,2.53
2023-04-23T01:42:43.886Z,2.70
2023-04-23T01:44:46.848Z,2.70
2023-04-23T01:46:49.692Z,2.93
2023-04-23T01:48:52.681Z,2.50
2023-04-23T01:50:55.869Z,2.70
2023-04-23T01:52:58.683Z,3.00
2023-04-23T01:55:03.010Z,3.27
2023-04-23T01:57:07.270Z,2.60
2023-04-23T01:59:10.098Z,2.60
2023-04-23T02:01:13.171Z,2.70
2023-04-23T02:03:16.355Z,2.90
2023-04-23T02:05:21.506Z,3.33
2023-04-23T02:07:24.749Z,3.33
2023-04-23T02:09:27.500Z,3.03
2023-04-23T02:11:30.277Z,3.43
2023-04-23T02:13:34.490Z,3.37
2023-04-23T02:15:39.177Z,2.77
2023-04-23T02:17:42.290Z,3.40
2023-04-23T02:19:46.668Z,3.80
2023-04-23T02:21:49.455Z,3.70
2023-04-23T02:23:52.467Z,3.80
2023-04-23T02:25:57.536Z,3.40
2023-04-23T02:28:06.303Z,3.60
2023-04-23T02:30:11.636Z,3.40
2023-04-23T02:32:14.553Z,3.33
2023-04-23T02:34:17.392Z,3.23
2023-04-23T02:36:20.457Z,4.23
2023-04-23T02:38:24.569Z,3.70
2023-04-23T02:40:27.342Z,3.77
2023-04-23T02:42:30.169Z,3.70
2023-04-23T02:44:33.021Z,4.17
2023-04-23T02:46:37.607Z,3.70
2023-04-23T02:48:41.741Z,3.80
2023-04-23T02:50:44.765Z,3.33
2023-04-23T02:52:49.758Z,3.50
2023-04-23T02:54:52.666Z,3.67
2023-04-23T02:56:57.409Z,3.50
2023-04-23T02:59:01.375Z,3.53
2023-04-23T03:01:05.195Z,3.50
2023-04-23T03:03:12.506Z,3.90
2023-04-23T03:05:15.662Z,3.33
2023-04-23T03:07:18.611Z,3.70
2023-04-23T03:09:21.368Z,3.93
2023-04-23T03:11:24.237Z,3.67
2023-04-23T03:13:27.643Z,3.80
2023-04-23T03:15:30.455Z,4.07
2023-04-23T03:17:33.439Z,3.70
2023-04-23T03:19:37.790Z,3.97
2023-04-23T03:21:41.036Z,3.87
2023-04-23T03:23:44.090Z,4.23
2023-04-23T03:25:47.125Z,3.70
2023-04-23T03:27:52.294Z,3.57
2023-04-23T03:29:55.096Z,3.50
2023-04-23T03:31:59.139Z,4.07
2023-04-23T03:34:01.967Z,3.97
2023-04-23T03:36:06.689Z,3.93
2023-04-23T03:38:09.501Z,4.00
2023-04-23T03:40:12.692Z,4.10
2023-04-23T03:42:16.300Z,3.90
2023-04-23T03:44:19.204Z,4.50
2023-04-23T03:46:22.029Z,3.93
2023-04-23T03:48:24.880Z,3.50
2023-04-23T03:50:27.703Z,3.70
2023-04-23T03:52:31.737Z,3.87
2023-04-23T03:54:34.534Z,3.60
2023-04-23T03:56:37.407Z,3.70
2023-04-23T03:58:40.235Z,4.07
2023-04-23T04:00:43.035Z,3.80
2023-04-23T04:02:45.939Z,3.67
2023-04-23T04:04:51.790Z,3.90
2023-04-23T04:06:54.707Z,3.90
2023-04-23T04:08:58.758Z,4.37
2023-04-23T04:11:02.153Z,4.00
2023-04-23T04:13:04.951Z,4.20
2023-04-23T04:15:08.777Z,4.37
2023-04-23T04:17:12.432Z,4.27
2023-04-23T04:19:18.234Z,3.90
2023-04-23T04:21:21.009Z,3.70
2023-04-23T04:23:23.779Z,3.90
2023-04-23T04:25:28.830Z,3.40
2023-04-23T04:27:33.389Z,3.97
2023-04-23T04:29:36.214Z,3.77
2023-04-23T04:31:39.652Z,4.03
2023-04-23T04:33:43.278Z,4.00
2023-04-23T04:35:46.625Z,3.70
2023-04-23T04:37:49.882Z,5.47
2023-04-23T04:39:52.736Z,5.43
2023-04-23T04:41:59.969Z,5.80
2023-04-23T04:44:02.823Z,4.73
2023-04-23T04:46:07.501Z,3.93
2023-04-23T04:48:10.529Z,4.70
2023-04-23T04:50:13.323Z,3.97
2023-04-23T04:52:16.058Z,3.90
2023-04-23T04:54:18.825Z,3.60
2023-04-23T04:56:22.406Z,4.33
2023-04-23T04:58:26.577Z,4.50
2023-04-23T05:00:32.021Z,4.60
2023-04-23T05:02:35.954Z,4.90
2023-04-23T05:04:38.947Z,4.70
2023-04-23T05:06:41.829Z,5.23
2023-04-23T05:08:48.083Z,4.43
2023-04-23T05:10:51.321Z,5.13
2023-04-23T05:12:54.656Z,6.00
2023-04-23T05:14:58.748Z,6.23
2023-04-23T05:17:01.760Z,8.00
2023-04-23T05:19:04.536Z,8.30
2023-04-23T05:21:07.420Z,9.77
2023-04-23T05:23:10.491Z,9.57
2023-04-23T05:25:13.767Z,9.77
2023-04-23T05:27:19.037Z,9.20
2023-04-23T05:29:21.855Z,8.70
2023-04-23T05:31:28.142Z,9.00
2023-04-23T05:33:39.197Z,8.73
2023-04-23T05:35:50.131Z,8.87
2023-04-23T05:37:53.275Z,9.00
2023-04-23T05:39:57.406Z,9.10
2023-04-23T05:42:00.253Z,9.53
2023-04-23T05:44:03.171Z,9.97
2023-04-23T05:46:07.320Z,10.10
2023-04-23T05:48:11.867Z,9.93
2023-04-23T05:50:15.061Z,10.10
2023-04-23T05:52:18.012Z,10.43
2023-04-23T05:54:20.787Z,11.03
2023-04-23T05:56:23.592Z,10.83
2023-04-23T05:58:27.656Z,11.87
2023-04-23T06:00:30.520Z,11.60
2023-04-23T06:02:34.336Z,10.50
2023-04-23T06:04:39.154Z,10.73
2023-04-23T06:06:43.038Z,10.80
2023-04-23T06:08:45.926Z,10.33
2023-04-23T06:10:48.719Z,10.43
2023-04-23T06:12:51.528Z,11.00
2023-04-23T06:14:54.756Z,9.00
2023-04-23T06:16:57.519Z,8.97
2023-04-23T06:19:00.242Z,16.63
2023-04-23T06:21:04.663Z,11.50
2023-04-23T06:23:07.774Z,9.90
2023-04-23T06:25:10.964Z,7.37
2023-04-23T06:27:14.733Z,6.50
2023-04-23T06:29:17.721Z,7.10
2023-04-23T06:31:20.692Z,7.23
2023-04-23T06:33:23.511Z,6.80
2023-04-23T06:35:26.322Z,6.00
2023-04-23T06:37:31.736Z,6.17
2023-04-23T06:39:35.008Z,6.30
2023-04-23T06:41:38.219Z,5.57
2023-04-23T06:43:45.943Z,7.43
2023-04-23T06:45:49.893Z,6.50
2023-04-23T06:47:53.332Z,5.53
2023-04-23T06:49:56.972Z,5.23
2023-04-23T06:52:00.060Z,5.07
2023-04-23T06:54:04.409Z,4.57
2023-04-23T06:56:07.899Z,4.80
2023-04-23T06:58:12.792Z,4.10
2023-04-23T07:00:18.317Z,4.80
2023-04-23T07:02:21.165Z,5.07
2023-04-23T07:04:23.923Z,4.60
2023-04-23T07:06:27.829Z,4.30
2023-04-23T07:08:30.649Z,4.30
2023-04-23T07:10:35.028Z,4.27
2023-04-23T07:12:38.275Z,4.93
2023-04-23T07:14:41.705Z,4.80
2023-04-23T07:16:52.592Z,4.77
2023-04-23T07:18:55.455Z,4.47
2023-04-23T07:20:58.263Z,5.07
2023-04-23T07:23:03.938Z,4.37
2023-04-23T07:25:10.917Z,4.17
2023-04-23T07:27:15.049Z,4.17
2023-04-23T07:29:18.334Z,3.60
2023-04-23T07:31:21.461Z,3.53
2023-04-23T07:33:24.503Z,3.87
2023-04-23T07:35:27.701Z,2.90
2023-04-23T07:37:30.645Z,2.60
2023-04-23T07:39:35.457Z,2.73
2023-04-23T07:41:38.612Z,2.67
2023-04-23T07:43:43.879Z,2.40
2023-04-23T07:45:48.135Z,2.07
2023-04-23T07:47:51.572Z,2.10
2023-04-23T07:49:54.569Z,2.20
2023-04-23T07:51:57.405Z,2.30
2023-04-23T07:54:00.281Z,2.20
2023-04-23T07:56:03.865Z,1.80
2023-04-23T07:58:09.085Z,1.90
2023-04-23T08:00:14.562Z,1.80
2023-04-23T08:02:18.471Z,1.73
2023-04-23T08:04:21.948Z,1.60
2023-04-23T08:06:24.865Z,2.00
2023-04-23T08:08:28.062Z,1.87
2023-04-23T08:10:30.985Z,2.40
2023-04-23T08:12:36.524Z,2.90
2023-04-23T08:14:40.734Z,1.90
2023-04-23T08:16:45.013Z,1.60
2023-04-23T08:18:58.130Z,1.70
2023-04-23T08:21:07.492Z,1.80
2023-04-23T08:23:10.727Z,1.73
2023-04-23T08:25:15.316Z,1.43
2023-04-23T08:27:18.498Z,1.60
2023-04-23T08:29:21.275Z,1.37
2023-04-23T08:31:27.066Z,1.40
2023-04-23T08:33:32.016Z,1.50
2023-04-23T08:35:34.945Z,1.60
2023-04-23T08:37:39.090Z,1.70
2023-04-23T08:39:44.474Z,2.17
2023-04-23T08:41:54.345Z,1.63
2023-04-23T08:44:10.522Z,1.33
2023-04-23T08:46:18.444Z,1.57
2023-04-23T08:48:22.452Z,1.40
2023-04-23T08:50:28.260Z,1.60
2023-04-23T08:52:35.379Z,1.60
2023-04-23T08:54:42.517Z,1.80
2023-04-23T08:56:46.778Z,1.40
2023-04-23T08:58:51.557Z,1.70
2023-04-23T09:00:56.292Z,2.00
2023-04-23T09:03:00.170Z,2.03
2023-04-23T09:05:04.551Z,1.80
2023-04-23T09:07:11.399Z,2.70
2023-04-23T09:09:17.431Z,1.53
2023-04-23T09:11:24.641Z,2.03
2023-04-23T09:13:27.532Z,5.10
2023-04-23T09:15:30.347Z,2.20
2023-04-23T09:17:35.806Z,2.10
2023-04-23T09:19:40.941Z,2.13
2023-04-23T09:21:45.379Z,1.90
2023-04-23T09:23:51.864Z,2.00
2023-04-23T09:25:54.767Z,1.87
2023-04-23T09:27:59.994Z,2.03
2023-04-23T09:30:05.250Z,1.60
2023-04-23T09:32:10.462Z,2.20
2023-04-23T09:34:13.715Z,2.10
2023-04-23T09:36:17.684Z,2.27
2023-04-23T09:38:21.329Z,2.57
2023-04-23T09:40:28.195Z,2.43
2023-04-23T09:42:31.477Z,2.50
2023-04-23T09:44:37.479Z,2.30
2023-04-23T09:46:42.233Z,2.30
2023-04-23T09:48:45.193Z,2.20
2023-04-23T09:50:48.226Z,2.30
2023-04-23T09:52:56.357Z,2.43
2023-04-23T09:55:00.326Z,2.30
2023-04-23T09:57:08.818Z,2.10
2023-04-23T09:59:48.801Z,2.27
2023-04-23T10:01:54.256Z,2.20
2023-04-23T10:03:58.100Z,2.23
2023-04-23T10:06:02.564Z,2.67
2023-04-23T10:08:06.905Z,1.83
2023-04-23T10:10:10.510Z,2.20
2023-04-23T10:14:22.861Z,2.20
2023-04-23T10:16:30.601Z,1.90
2023-04-23T10:18:41.802Z,3.00
2023-04-23T10:20:44.676Z,2.00
2023-04-23T10:22:47.997Z,1.90
2023-04-23T10:24:56.138Z,1.70
2023-04-23T10:27:02.766Z,1.73
2023-04-23T10:29:11.933Z,1.83
2023-04-23T10:31:14.967Z,1.83
2023-04-23T10:33:29.442Z,2.00
2023-04-23T10:35:35.297Z,1.77
2023-04-23T10:37:39.020Z,1.90
2023-04-23T10:39:47.208Z,1.80
2023-04-23T10:41:50.494Z,1.80
2023-04-23T10:43:54.943Z,1.77
2023-04-23T10:45:59.108Z,1.90
2023-04-23T10:48:02.063Z,2.20
2023-04-23T10:50:23.730Z,1.80
2023-04-23T10:52:26.643Z,1.80
2023-04-23T10:54:32.658Z,1.60
2023-04-23T10:56:36.154Z,1.40
2023-04-23T10:58:52.590Z,2.03
2023-04-23T11:00:56.096Z,1.63
2023-04-23T11:03:03.690Z,1.57
2023-04-23T11:05:10.536Z,1.80
2023-04-23T11:07:14.802Z,1.60
2023-04-23T11:09:40.043Z,1.53
2023-04-23T11:11:46.886Z,1.90
2023-04-23T11:13:57.326Z,1.70
2023-04-23T11:16:16.712Z,2.00
2023-04-23T11:18:25.815Z,1.50
2023-04-23T11:20:28.710Z,1.80
2023-04-23T11:22:36.919Z,1.50
2023-04-23T11:24:43.454Z,1.48
2023-04-23T11:26:48.548Z,1.33
2023-04-23T11:28:54.149Z,1.50
2023-04-23T11:30:57.152Z,1.60
2023-04-23T11:33:01.944Z,1.98
2023-04-23T11:35:11.421Z,1.65
2023-04-23T11:37:16.591Z,1.60
2023-04-23T11:39:21.089Z,1.73
2023-04-23T11:41:24.427Z,1.70
2023-04-23T11:43:29.387Z,1.73
2023-04-23T11:45:35.510Z,1.70
2023-04-23T11:47:38.332Z,1.60
2023-04-23T11:49:42.935Z,1.77
2023-04-23T11:51:50.461Z,1.70
2023-04-23T11:53:53.589Z,2.00
2023-04-23T11:55:56.671Z,1.73
2023-04-23T11:57:59.704Z,2.00
2023-04-23T12:00:04.684Z,1.47
2023-04-23T12:02:07.784Z,1.90
2023-04-23T12:04:12.385Z,1.80
2023-04-23T12:06:19.985Z,1.63
2023-04-23T12:08:26.319Z,1.60
2023-04-23T12:10:29.161Z,1.80
2023-04-23T12:12:36.072Z,1.60
2023-04-23T12:14:38.962Z,1.60
2023-04-23T12:16:43.093Z,1.67
2023-04-23T12:18:45.887Z,1.97
2023-04-23T12:20:48.689Z,1.50
2023-04-23T12:22:51.870Z,1.42
2023-04-23T12:24:56.087Z,1.60
2023-04-23T12:27:00.892Z,1.50
2023-04-23T12:29:03.932Z,1.60
2023-04-23T12:31:07.676Z,1.60
2023-04-23T12:33:12.991Z,1.48
2023-04-23T12:35:16.407Z,1.50
2023-04-23T12:37:19.227Z,1.65
2023-04-23T12:39:29.514Z,1.83
2023-04-23T12:41:35.229Z,1.80
2023-04-23T12:43:38.053Z,1.70
2023-04-23T12:45:41.020Z,1.70
2023-04-23T12:47:45.061Z,1.70
2023-04-23T12:49:54.234Z,1.65
2023-04-23T12:52:00.998Z,1.45
2023-04-23T12:54:04.074Z,1.60
2023-04-23T12:56:07.110Z,1.50
2023-04-23T12:58:11.422Z,1.65
2023-04-23T13:00:15.687Z,1.67
2023-04-23T13:02:18.646Z,1.90
2023-04-23T13:04:29.091Z,1.60
2023-04-23T13:06:31.923Z,1.58
2023-04-23T13:08:34.841Z,1.37
2023-04-23T13:10:40.835Z,1.80
2023-04-23T13:12:44.530Z,1.52
2023-04-23T13:14:48.957Z,1.52
2023-04-23T13:16:52.699Z,1.52
2023-04-23T13:18:56.564Z,1.50
2023-04-23T13:20:59.572Z,1.50
2023-04-23T13:23:03.106Z,1.53
2023-04-23T13:25:07.055Z,1.58
2023-04-23T13:27:09.933Z,1.50
2023-04-23T13:29:13.276Z,1.60
2023-04-23T13:31:17.793Z,1.63
2023-04-23T13:33:21.125Z,1.50
2023-04-23T13:35:24.618Z,1.60
2023-04-23T13:37:28.245Z,1.60
2023-04-23T13:39:31.030Z,1.63
2023-04-23T13:41:33.822Z,1.73
2023-04-23T13:43:36.573Z,1.50
2023-04-23T13:45:39.386Z,1.52
2023-04-23T13:47:46.010Z,1.30
2023-04-23T13:49:49.067Z,1.35
2023-04-23T13:51:56.268Z,1.50
2023-04-23T13:54:00.200Z,1.45
2023-04-23T13:56:03.195Z,1.40
2023-04-23T13:58:12.213Z,1.50
2023-04-23T14:00:16.418Z,1.50
2023-04-23T14:02:21.717Z,1.40
2023-04-23T14:04:27.235Z,1.60
2023-04-23T14:06:30.127Z,1.70
2023-04-23T14:08:33.204Z,1.45
2023-04-23T14:10:36.332Z,1.70
2023-04-23T14:12:39.974Z,1.55
2023-04-23T14:14:43.024Z,1.63
2023-04-23T14:16:46.175Z,1.65
2023-04-23T14:18:48.976Z,1.60
2023-04-23T14:20:54.925Z,1.50
2023-04-23T14:23:02.918Z,1.60
2023-04-23T14:25:10.966Z,1.40
2023-04-23T14:27:14.931Z,1.40
2023-04-23T14:29:28.375Z,1.20
2023-04-23T14:31:31.698Z,1.33
2023-04-23T14:33:34.594Z,1.45
2023-04-23T14:35:43.344Z,1.30
2023-04-23T14:37:47.735Z,1.42
2023-04-23T14:39:51.239Z,1.40
2023-04-23T14:41:54.525Z,1.48
2023-04-23T14:43:57.719Z,1.50
2023-04-23T14:46:01.493Z,1.27
2023-04-23T14:48:04.766Z,1.50
2023-04-23T14:50:10.715Z,1.55
2023-04-23T14:52:13.479Z,1.30
2023-04-23T14:54:17.807Z,1.10
2023-04-23T14:56:21.115Z,1.30
2023-04-23T14:58:24.216Z,1.30
2023-04-23T15:00:27.164Z,1.40
2023-04-23T15:02:30.066Z,1.20
2023-04-23T15:04:33.210Z,1.30
2023-04-23T15:06:37.300Z,1.50
2023-04-23T15:08:40.216Z,1.30
2023-04-23T15:10:47.268Z,1.48
2023-04-23T15:12:56.740Z,1.52
2023-04-23T15:14:59.610Z,1.27
2023-04-23T15:17:02.895Z,1.17
2023-04-23T15:19:07.312Z,1.40
2023-04-23T15:21:10.228Z,1.35
2023-04-23T15:23:13.003Z,1.38
2023-04-23T15:25:16.626Z,1.30
2023-04-23T15:27:22.015Z,1.30
2023-04-23T15:29:25.381Z,1.13
2023-04-23T15:31:28.454Z,1.20
2023-04-23T15:33:31.506Z,1.30
2023-04-23T15:35:34.423Z,1.05
2023-04-23T15:37:37.187Z,1.00
2023-04-23T15:39:40.468Z,1.20
2023-04-23T15:41:45.509Z,1.42
2023-04-23T15:43:53.102Z,1.50
2023-04-23T15:45:58.668Z,1.40
2023-04-23T15:48:01.681Z,1.17
2023-04-23T15:50:05.330Z,1.60
2023-04-23T15:52:08.134Z,1.23
2023-04-23T15:54:11.020Z,1.48
2023-04-23T15:56:15.054Z,1.42
2023-04-23T15:58:18.036Z,1.40
2023-04-23T16:00:29.765Z,1.50
2023-04-23T16:02:34.841Z,1.45
2023-04-23T16:04:42.895Z,1.60
2023-04-23T16:06:46.086Z,1.50
2023-04-23T16:08:48.962Z,1.40
2023-04-23T16:10:54.322Z,1.50
2023-04-23T16:12:58.469Z,1.50
2023-04-23T16:15:01.514Z,1.50
2023-04-23T16:17:05.741Z,1.45
2023-04-23T16:19:10.024Z,1.20
2023-04-23T16:21:12.828Z,1.42
2023-04-23T16:23:15.671Z,1.42
2023-04-23T16:25:19.094Z,1.50
2023-04-23T16:27:22.737Z,3.45
2023-04-23T16:29:25.788Z,11.10
2023-04-23T16:31:28.838Z,91.15
2023-04-23T16:33:33.299Z,35.15
2023-04-23T16:35:36.170Z,408.58
2023-04-23T16:37:39.176Z,803.60
2023-04-23T16:39:42.375Z,602.15
2023-04-23T16:41:45.811Z,152.25
2023-04-23T16:43:48.755Z,9.60
2023-04-23T16:45:51.599Z,2.90
2023-04-23T16:47:54.391Z,1.65
2023-04-23T16:49:58.729Z,1.52
2023-04-23T16:52:01.575Z,1.73
2023-04-23T16:54:05.509Z,1.60
2023-04-23T16:56:08.310Z,1.60
2023-04-23T16:58:11.112Z,1.90
2023-04-23T17:00:16.425Z,1.77
2023-04-23T17:02:19.503Z,17.87
2023-04-23T17:04:22.733Z,26.30
2023-04-23T17:06:31.296Z,63.90
2023-04-23T17:08:34.164Z,166.60
2023-04-23T17:10:37.065Z,45.07
2023-04-23T17:12:39.827Z,39.43
2023-04-23T17:14:42.834Z,6.27
2023-04-23T17:16:48.087Z,3.83
2023-04-23T17:18:50.866Z,3.30
2023-04-23T17:20:53.760Z,2.17
2023-04-23T17:22:57.890Z,2.10
2023-04-23T17:25:01.411Z,1.80
2023-04-23T17:27:04.330Z,2.00
2023-04-23T17:29:07.529Z,2.00
2023-04-23T17:31:11.262Z,2.27
2023-04-23T17:33:14.965Z,2.33
2023-04-23T17:35:19.325Z,1.87
2023-04-23T17:37:22.650Z,1.90
2023-04-23T17:39:26.926Z,2.07
2023-04-23T17:41:29.798Z,2.17
2023-04-23T17:43:35.213Z,1.80
2023-04-23T17:45:40.150Z,1.53
2023-04-23T17:47:43.242Z,2.20
2023-04-23T17:49:46.491Z,1.90
2023-04-23T17:51:49.284Z,1.80
2023-04-23T17:53:52.419Z,1.80
2023-04-23T17:56:00.253Z,2.10
2023-04-23T17:58:05.669Z,1.77
2023-04-23T18:00:12.386Z,1.83
2023-04-23T18:02:16.462Z,1.70
2023-04-23T18:04:19.698Z,1.70
2023-04-23T18:06:23.402Z,1.50
2023-04-23T18:08:26.958Z,1.53
2023-04-23T18:10:30.168Z,1.60
2023-04-23T18:12:34.973Z,1.50
2023-04-23T18:14:37.826Z,2.13
2023-04-23T18:16:40.647Z,2.73
2023-04-23T18:18:44.963Z,2.70
2023-04-23T18:20:47.790Z,2.57
2023-04-23T18:22:50.838Z,3.13
2023-04-23T18:24:53.704Z,2.87
2023-04-23T18:26:58.514Z,2.87
2023-04-23T18:29:02.703Z,2.87
2023-04-23T18:31:05.776Z,2.30
2023-04-23T18:33:14.766Z,2.40
2023-04-23T18:35:17.676Z,2.57
2023-04-23T18:37:35.715Z,2.90
2023-04-23T18:39:40.462Z,2.70
2023-04-23T18:41:43.794Z,2.90
2023-04-23T18:43:46.900Z,2.80
2023-04-23T18:45:51.648Z,2.50
2023-04-23T18:47:59.217Z,2.30
2023-04-23T18:50:05.324Z,2.30
2023-04-23T18:52:08.342Z,2.00
2023-04-23T18:54:14.802Z,2.10
2023-04-23T18:56:18.435Z,2.40
2023-04-23T18:58:22.774Z,1.87
2023-04-23T19:00:26.865Z,1.97
2023-04-23T19:02:35.601Z,1.93
2023-04-23T19:04:39.105Z,1.83
2023-04-23T19:06:42.585Z,2.00
2023-04-23T19:08:45.666Z,2.20
2023-04-23T19:10:48.598Z,2.33
2023-04-23T19:12:51.778Z,2.47
2023-04-23T19:14:54.710Z,2.23
2023-04-23T19:16:57.662Z,2.20
2023-04-23T19:19:01.757Z,2.67
2023-04-23T19:21:05.458Z,2.20
2023-04-23T19:23:09.095Z,64.47
2023-04-23T19:25:15.252Z,151.67
2023-04-23T19:27:18.543Z,122.07
2023-04-23T19:29:22.363Z,286.23
2023-04-23T19:31:26.455Z,502.63
2023-04-23T19:33:29.493Z,256.77
2023-04-23T19:35:33.726Z,88.37
2023-04-23T19:37:36.971Z,49.07
2023-04-23T19:39:40.150Z,30.77
2023-04-23T19:41:43.078Z,9.03
2023-04-23T19:43:45.842Z,2.53
2023-04-23T19:45:48.626Z,3.70
2023-04-23T19:47:51.537Z,2.33
2023-04-23T19:49:54.522Z,2.40
2023-04-23T19:51:59.211Z,2.10
2023-04-23T19:54:02.510Z,5.70
2023-04-23T19:56:08.419Z,6.27
2023-04-23T19:58:11.606Z,6.00
2023-04-23T20:00:18.334Z,4.40
2023-04-23T20:02:21.638Z,3.60
2023-04-23T20:04:24.795Z,2.60
2023-04-23T20:06:29.146Z,3.10
2023-04-23T20:08:42.084Z,2.50
2023-04-23T20:10:44.807Z,6.77
2023-04-23T20:12:47.679Z,18.83
2023-04-23T20:14:50.466Z,3.87
2023-04-23T20:16:55.962Z,2.90
2023-04-23T20:18:58.963Z,3.03
2023-04-23T20:21:01.777Z,2.70
2023-04-23T20:23:04.573Z,2.50
2023-04-23T20:25:10.271Z,2.20
2023-04-23T20:27:13.119Z,14.67
2023-04-23T20:29:17.262Z,5.30
2023-04-23T20:31:21.302Z,4.40
2023-04-23T20:33:24.567Z,3.30
2023-04-23T20:35:28.652Z,2.60
2023-04-23T20:37:31.463Z,2.97
2023-04-23T20:39:34.602Z,3.20
2023-04-23T20:41:38.842Z,2.60
2023-04-23T20:43:44.381Z,1.70
2023-04-23T20:45:47.536Z,1.37
2023-04-23T20:47:51.510Z,1.70
2023-04-23T20:49:54.350Z,1.57
2023-04-23T20:51:59.455Z,1.70
2023-04-23T20:54:02.917Z,1.67
2023-04-23T20:56:05.721Z,2.00
2023-04-23T20:58:09.953Z,1.70
2023-04-23T21:00:14.316Z,1.60
2023-04-23T21:02:17.218Z,1.30
2023-04-23T21:04:20.261Z,1.60
2023-04-23T21:06:23.804Z,1.60
2023-04-23T21:08:26.717Z,2.83
2023-04-23T21:10:29.480Z,2.10
2023-04-23T21:12:32.733Z,1.50
2023-04-23T21:14:44.192Z,1.43
2023-04-23T21:16:47.104Z,1.30
2023-04-23T21:18:49.896Z,1.20
2023-04-23T21:20:52.925Z,1.30
2023-04-23T21:22:55.973Z,1.30
2023-04-23T21:24:58.757Z,1.30
2023-04-23T21:27:04.378Z,1.23
2023-04-23T21:29:07.169Z,1.27
2023-04-23T21:31:18.903Z,0.90
2023-04-23T21:33:25.383Z,1.00
2023-04-23T21:35:28.118Z,1.20
2023-04-23T21:37:33.856Z,1.20
2023-04-23T21:39:36.648Z,1.00
2023-04-23T21:41:39.808Z,1.10
2023-04-23T21:43:42.654Z,1.00
2023-04-23T21:45:47.573Z,1.10
2023-04-23T21:47:51.797Z,1.07
2023-04-23T21:49:56.861Z,1.00
2023-04-23T21:52:00.483Z,0.90
2023-04-23T21:54:03.288Z,0.70
2023-04-23T21:56:06.699Z,0.80
2023-04-23T22:00:16.269Z,0.80
2023-04-23T22:02:19.465Z,0.70
2023-04-23T22:04:27.920Z,1.03
2023-04-23T22:06:32.390Z,0.90
2023-04-23T22:08:37.891Z,1.00
2023-04-23T22:10:43.473Z,0.90
2023-04-23T22:12:47.616Z,0.87
2023-04-23T22:14:50.557Z,0.97
2023-04-23T22:16:55.200Z,0.87
2023-04-23T22:19:02.627Z,1.10
2023-04-23T22:21:13.226Z,0.90
2023-04-23T22:23:16.290Z,0.90
2023-04-23T22:25:19.806Z,0.90
2023-04-23T22:27:22.759Z,0.70
2023-04-23T22:29:25.694Z,0.80
2023-04-23T22:31:36.063Z,0.93
2023-04-23T22:33:39.394Z,0.70
2023-04-23T22:35:42.464Z,0.87
2023-04-23T22:37:47.026Z,0.87
2023-04-23T22:39:50.308Z,0.80
2023-04-23T22:41:53.056Z,1.00
2023-04-23T22:43:56.313Z,0.80
2023-04-23T22:45:59.178Z,0.90
2023-04-23T22:48:02.362Z,1.00
2023-04-23T22:50:06.527Z,1.00
2023-04-23T22:52:11.725Z,0.90
2023-04-23T22:54:16.191Z,1.00
2023-04-23T22:56:20.113Z,0.80
2023-04-23T22:58:22.993Z,0.80
2023-04-23T23:00:26.409Z,0.90
2023-04-23T23:02:29.535Z,0.93
2023-04-23T23:04:32.744Z,1.23
2023-04-23T23:06:35.630Z,0.97
2023-04-23T23:08:38.406Z,1.00
2023-04-23T23:10:42.796Z,1.10
2023-04-23T23:12:45.572Z,1.07
2023-04-23T23:14:48.370Z,1.00
2023-04-23T23:16:51.245Z,1.07
2023-04-23T23:18:54.302Z,0.90
2023-04-23T23:20:57.312Z,0.80
2023-04-23T23:23:00.645Z,0.90
2023-04-23T23:25:03.452Z,0.87
2023-04-23T23:27:07.835Z,0.90
2023-04-23T23:29:10.758Z,1.07
2023-04-23T23:31:13.887Z,1.10
2023-04-23T23:33:16.894Z,0.80
2023-04-23T23:35:19.985Z,0.90
2023-04-23T23:37:22.853Z,1.00
2023-04-23T23:39:27.631Z,1.00
2023-04-23T23:41:30.419Z,1.00
2023-04-23T23:43:36.542Z,1.00
2023-04-23T23:45:39.370Z,0.90
2023-04-23T23:47:42.347Z,0.90
2023-04-23T23:49:45.594Z,1.03
2023-04-23T23:51:48.747Z,1.03
2023-04-23T23:53:52.908Z,1.00
2023-04-23T23:55:56.047Z,1.00
2023-04-23T23:57:58.832Z,1.00
